Time;durP1;ratioP1;P1;durP2;ratioP2;P2;SDS_P1;SDS_P2;PMS_P1;PMS_P2;Temp;Humidity;BMP_temperature;BMP_pressure;BME280_temperature;BME280_humidity;BME280_pressure;Samples;Min_cycle;Max_cycle;Signal;HPM_P1;HPM_P2
2023/03/30 00:01:16;;;;;;;;;;;;;;;20.77;49.88;99958.63;7253808;19;152844;-54
2023/03/30 00:03:45;;;;;;;;;;;;;;;20.75;50.11;99950.56;7256202;19;153113;-55
2023/03/30 00:06:19;;;;;;;;;;;;;;;20.76;50.22;99935.34;7251396;19;152949;-54
2023/03/30 00:08:47;;;;;;;;;;;;;;;20.74;49.91;99946.09;7265407;19;152314;-54
2023/03/30 00:11:16;;;;;;;;;;;;;;;20.72;50.17;99948.38;7251752;19;155105;-54
2023/03/30 00:13:43;;;;;;;;;;;;;;;20.71;50.22;99955.19;7261539;19;151966;-54
2023/03/30 00:16:12;;;;;;;;;;;;;;;20.73;50.33;99966.06;7259477;19;152887;-55
2023/03/30 00:18:39;;;;;;;;;;;;;;;20.70;50.37;99958.31;7250829;19;152564;-54
2023/03/30 00:21:08;;;;;;;;;;;;;;;20.69;50.43;99954.69;7256516;19;152768;-54
2023/03/30 00:23:35;;;;;;;;;;;;;;;20.68;50.18;99949.38;7255323;19;153806;-54
2023/03/30 00:26:02;;;;;;;;;;;;;;;20.67;49.98;99956.19;7257794;19;153199;-54
2023/03/30 00:28:30;;;;;;;;;;;;;;;20.64;50.26;99951.22;7260710;19;151976;-54
2023/03/30 00:30:57;;;;;;;;;;;;;;;20.64;50.11;99966.09;7260174;19;153461;-54
2023/03/30 00:33:24;;;;;;;;;;;;;;;20.61;50.51;99961.16;7253546;19;151945;-54
2023/03/30 00:36:11;;;;;;;;;;;;;;;20.60;50.20;99945.47;7256436;19;153541;-54
2023/03/30 00:38:39;;;;;;;;;;;;;;;20.62;50.38;99948.78;7255860;19;155368;-54
2023/03/30 00:41:06;;;;;;;;;;;;;;;20.58;50.61;99953.38;7251829;19;153189;-54
2023/03/30 00:43:33;;;;;;;;;;;;;;;20.60;50.35;99950.25;7254813;19;155160;-54
2023/03/30 00:46:00;;;;;;;;;;;;;;;20.58;50.21;99939.34;7255438;19;155350;-54
2023/03/30 00:48:30;;;;;;;;;;;;;;;20.57;49.93;99946.13;7255329;19;152333;-54
2023/03/30 00:51:00;;;;;;;;;;;;;;;20.57;50.12;99934.91;7251593;19;153084;-54
2023/03/30 00:53:30;;;;;;;;;;;;;;;20.55;49.58;99913.94;7259354;19;156019;-54
2023/03/30 00:55:58;;;;;;;;;;;;;;;20.52;49.86;99915.44;7255883;19;152746;-55
2023/03/30 00:58:28;;;;;;;;;;;;;;;20.48;50.00;99922.88;7254887;19;153508;-55
2023/03/30 01:00:57;;;;;;;;;;;;;;;20.47;49.60;99923.19;7253698;19;152343;-55
2023/03/30 01:03:27;;;;;;;;;;;;;;;20.48;49.30;99927.66;7254173;19;152762;-54
2023/03/30 01:05:55;;;;;;;;;;;;;;;20.46;49.87;99915.94;7248885;19;153338;-54
2023/03/30 01:08:31;;;;;;;;;;;;;;;20.42;49.55;99922.22;7263605;19;152558;-54
2023/03/30 01:11:00;;;;;;;;;;;;;;;20.42;49.28;99927.00;7259465;19;153425;-55
2023/03/30 01:13:28;;;;;;;;;;;;;;;20.39;49.81;99925.69;7257773;19;154232;-54
2023/03/30 01:16:01;;;;;;;;;;;;;;;20.37;49.58;99932.78;7264012;19;153143;-54
2023/03/30 01:18:36;;;;;;;;;;;;;;;20.36;49.88;99925.50;7257758;19;154024;-54
2023/03/30 01:21:22;;;;;;;;;;;;;;;20.31;49.76;99928.50;7259211;19;154395;-54
2023/03/30 01:24:03;;;;;;;;;;;;;;;20.31;50.06;99931.28;7257045;19;154293;-54
2023/03/30 01:26:36;;;;;;;;;;;;;;;20.32;49.79;99945.00;7256803;19;153326;-54
2023/03/30 01:29:04;;;;;;;;;;;;;;;20.31;49.66;99925.69;7258574;19;153734;-54
2023/03/30 01:31:40;;;;;;;;;;;;;;;20.32;49.49;99914.16;7242745;19;153699;-53
2023/03/30 01:34:08;;;;;;;;;;;;;;;20.31;49.78;99922.88;7250930;19;154332;-54
2023/03/30 01:36:35;;;;;;;;;;;;;;;20.34;49.78;99922.22;7257119;19;154522;-54
2023/03/30 01:39:14;;;;;;;;;;;;;;;20.33;49.58;99921.41;7260200;19;153624;-54
2023/03/30 01:41:51;;;;;;;;;;;;;;;20.32;49.68;99925.38;7252652;19;152407;-54
2023/03/30 01:44:19;;;;;;;;;;;;;;;20.31;49.58;99946.16;7254973;19;153510;-54
2023/03/30 01:46:48;;;;;;;;;;;;;;;20.26;49.67;99925.84;7251396;19;153229;-54
2023/03/30 01:49:25;;;;;;;;;;;;;;;20.25;49.92;99932.59;7264450;19;152676;-54
2023/03/30 01:51:55;;;;;;;;;;;;;;;20.27;49.59;99939.53;7262073;19;153982;-54
2023/03/30 01:54:24;;;;;;;;;;;;;;;20.27;49.89;99933.91;7261869;19;155212;-54
2023/03/30 01:56:56;;;;;;;;;;;;;;;20.22;50.20;99948.09;7253626;19;152647;-54
2023/03/30 01:59:23;;;;;;;;;;;;;;;20.20;49.87;99944.81;7263373;19;153342;-54
2023/03/30 02:01:52;;;;;;;;;;;;;;;20.22;50.16;99936.06;7265789;19;153596;-54
2023/03/30 02:04:22;;;;;;;;;;;;;;;20.21;50.05;99945.66;7260194;19;153019;-54
2023/03/30 02:06:55;;;;;;;;;;;;;;;20.20;49.79;99944.81;7259355;19;154067;-54
2023/03/30 02:09:23;;;;;;;;;;;;;;;20.20;50.05;99949.59;7261407;19;153658;-54
2023/03/30 02:11:52;;;;;;;;;;;;;;;20.18;50.36;99940.69;7257836;19;154231;-54
2023/03/30 02:14:22;;;;;;;;;;;;;;;20.16;49.89;99943.00;7259365;19;153815;-54
2023/03/30 02:16:52;;;;;;;;;;;;;;;20.14;50.12;99945.31;7256903;19;152707;-54
2023/03/30 02:19:20;;;;;;;;;;;;;;;20.09;50.58;99951.06;7258993;19;154152;-54
2023/03/30 02:21:49;;;;;;;;;;;;;;;20.09;50.46;99949.09;7256138;19;153306;-54
2023/03/30 02:24:19;;;;;;;;;;;;;;;20.08;50.54;99963.47;7260610;19;152908;-55
2023/03/30 02:26:47;;;;;;;;;;;;;;;20.07;50.48;99950.59;7256574;19;154835;-55
2023/03/30 02:29:15;;;;;;;;;;;;;;;20.05;50.39;99952.88;7263116;19;153119;-54
2023/03/30 02:31:45;;;;;;;;;;;;;;;20.05;50.60;99962.13;7255560;19;153901;-54
2023/03/30 02:34:13;;;;;;;;;;;;;;;20.04;50.65;99954.88;7255858;19;154154;-54
2023/03/30 02:36:41;;;;;;;;;;;;;;;20.03;50.56;99952.41;7261191;19;153071;-54
2023/03/30 02:39:14;;;;;;;;;;;;;;;20.04;50.24;99960.47;7260587;19;153067;-54
2023/03/30 02:41:43;;;;;;;;;;;;;;;20.04;50.55;99959.66;7259145;19;153952;-53
2023/03/30 02:44:11;;;;;;;;;;;;;;;20.03;50.54;99953.25;7268042;19;152932;-53
2023/03/30 02:46:48;;;;;;;;;;;;;;;20.02;50.27;99956.38;7259000;19;154891;-53
2023/03/30 02:49:15;;;;;;;;;;;;;;;20.03;50.49;99963.63;7244412;19;153348;-54
2023/03/30 02:51:48;;;;;;;;;;;;;;;20.02;50.26;99959.16;7254008;19;154492;-54
2023/03/30 02:54:25;;;;;;;;;;;;;;;20.01;50.02;99963.13;7256889;19;153297;-54
2023/03/30 02:56:53;;;;;;;;;;;;;;;20.01;50.19;99974.34;7258615;19;152047;-54
2023/03/30 02:59:21;;;;;;;;;;;;;;;20.00;49.80;99967.91;7260552;19;153544;-55
2023/03/30 03:01:58;;;;;;;;;;;;;;;19.98;50.29;99965.44;7255814;19;154552;-54
2023/03/30 03:04:27;;;;;;;;;;;;;;;19.97;50.25;99962.97;7257242;19;153055;-54
2023/03/30 03:06:57;;;;;;;;;;;;;;;19.98;50.33;99973.84;7266418;19;153518;-54
2023/03/30 03:09:25;;;;;;;;;;;;;;;19.95;50.08;99968.88;7259237;19;152173;-54
2023/03/30 03:11:52;;;;;;;;;;;;;;;19.95;50.05;99970.84;7254061;19;153063;-53
2023/03/30 03:14:19;;;;;;;;;;;;;;;19.94;50.34;99966.44;7246654;19;154122;-54
2023/03/30 03:16:47;;;;;;;;;;;;;;;19.92;50.44;99965.91;7253641;19;154054;-54
2023/03/30 03:19:15;;;;;;;;;;;;;;;19.91;50.35;99973.50;7254880;19;154033;-54
2023/03/30 03:21:42;;;;;;;;;;;;;;;19.90;50.16;99971.00;7253679;19;154570;-55
2023/03/30 03:24:12;;;;;;;;;;;;;;;19.87;50.56;99972.50;7257036;19;153150;-54
2023/03/30 03:26:39;;;;;;;;;;;;;;;19.87;50.56;99966.91;7256635;19;153777;-54
2023/03/30 03:29:06;;;;;;;;;;;;;;;19.87;50.51;99975.31;7262063;19;153320;-54
2023/03/30 03:31:33;;;;;;;;;;;;;;;19.86;50.30;99976.47;7251041;19;153808;-54
2023/03/30 03:34:00;;;;;;;;;;;;;;;19.85;50.43;99983.22;7255334;19;153638;-54
2023/03/30 03:36:28;;;;;;;;;;;;;;;19.87;50.06;99989.31;7259372;19;153538;-54
2023/03/30 03:38:55;;;;;;;;;;;;;;;19.85;50.23;99988.03;7246015;19;153448;-54
2023/03/30 03:41:22;;;;;;;;;;;;;;;19.82;50.46;99983.88;7253259;19;154397;-54
2023/03/30 03:43:49;;;;;;;;;;;;;;;19.85;50.26;99977.59;7257974;19;153112;-54
2023/03/30 03:46:16;;;;;;;;;;;;;;;19.83;50.25;99979.09;7259173;19;153135;-54
2023/03/30 03:48:43;;;;;;;;;;;;;;;19.81;50.19;99982.22;7254154;19;153531;-54
2023/03/30 03:51:10;;;;;;;;;;;;;;;19.82;50.18;99983.03;7260757;19;152965;-54
2023/03/30 03:53:37;;;;;;;;;;;;;;;19.79;50.49;99986.50;7255447;19;153715;-54
2023/03/30 03:56:05;;;;;;;;;;;;;;;19.77;50.62;99983.19;7259328;19;152895;-54
2023/03/30 03:58:32;;;;;;;;;;;;;;;19.81;50.05;99979.41;7258355;19;153064;-54
2023/03/30 04:01:00;;;;;;;;;;;;;;;19.79;50.11;99978.94;7254414;19;153505;-54
2023/03/30 04:03:28;;;;;;;;;;;;;;;19.79;50.43;99970.53;7256394;19;153592;-54
2023/03/30 04:05:59;;;;;;;;;;;;;;;19.76;50.48;99979.56;7252085;19;153080;-54
2023/03/30 04:08:27;;;;;;;;;;;;;;;19.78;50.05;99973.66;7255880;19;154263;-54
2023/03/30 04:10:55;;;;;;;;;;;;;;;19.75;50.54;99968.69;7253490;19;153377;-54
2023/03/30 04:13:22;;;;;;;;;;;;;;;19.75;50.50;99969.53;7258161;19;151887;-54
2023/03/30 04:15:49;;;;;;;;;;;;;;;19.74;50.53;99976.28;7255872;19;153741;-54
2023/03/30 04:18:16;;;;;;;;;;;;;;;19.72;50.66;99980.53;7254230;19;153366;-54
2023/03/30 04:20:43;;;;;;;;;;;;;;;19.72;50.32;99975.78;7253642;19;152859;-54
2023/03/30 04:23:20;;;;;;;;;;;;;;;19.70;50.54;99978.09;7252300;19;153630;-54
2023/03/30 04:25:47;;;;;;;;;;;;;;;19.70;50.66;99968.84;7254508;19;152877;-55
2023/03/30 04:28:14;;;;;;;;;;;;;;;19.69;50.71;99976.44;7253806;19;154438;-55
2023/03/30 04:30:44;;;;;;;;;;;;;;;19.70;50.55;99977.25;7246808;19;153412;-54
2023/03/30 04:33:13;;;;;;;;;;;;;;;19.68;50.35;99988.78;7259331;19;153314;-54
2023/03/30 04:35:40;;;;;;;;;;;;;;;19.68;50.76;99985.16;7252461;19;152676;-55
2023/03/30 04:38:07;;;;;;;;;;;;;;;19.69;50.60;99995.22;7257076;19;153001;-54
2023/03/30 04:40:34;;;;;;;;;;;;;;;19.66;50.45;99999.50;7249935;19;155653;-54
2023/03/30 04:43:02;;;;;;;;;;;;;;;19.63;50.70;99999.31;7255929;19;152504;-54
2023/03/30 04:45:30;;;;;;;;;;;;;;;19.62;50.77;100001.31;7258636;19;153378;-54
2023/03/30 04:47:57;;;;;;;;;;;;;;;19.63;50.54;100004.91;7255494;19;154197;-53
2023/03/30 04:50:24;;;;;;;;;;;;;;;19.60;50.75;100003.59;7258294;19;152310;-54
2023/03/30 04:52:51;;;;;;;;;;;;;;;19.59;50.49;100017.94;7258139;19;152585;-54
2023/03/30 04:55:18;;;;;;;;;;;;;;;19.60;50.70;100019.59;7265026;19;154507;-54
2023/03/30 04:57:45;;;;;;;;;;;;;;;19.58;50.69;100022.72;7249017;19;155926;-53
2023/03/30 05:00:12;;;;;;;;;;;;;;;19.58;50.36;100030.31;7255356;19;153576;-54
2023/03/30 05:02:39;;;;;;;;;;;;;;;19.57;50.70;100023.06;7254679;19;153140;-53
2023/03/30 05:05:07;;;;;;;;;;;;;;;19.58;50.69;100028.31;7260739;19;152649;-53
2023/03/30 05:07:34;;;;;;;;;;;;;;;19.51;50.97;100031.59;7257683;19;152556;-53
2023/03/30 05:10:00;;;;;;;;;;;;;;;19.52;50.87;100032.44;7256430;19;152266;-54
2023/03/30 05:12:27;;;;;;;;;;;;;;;19.51;50.92;100041.97;7257511;19;152687;-54
2023/03/30 05:14:54;;;;;;;;;;;;;;;19.52;50.80;100035.22;7258858;19;153138;-54
2023/03/30 05:17:21;;;;;;;;;;;;;;;19.52;50.73;100041.66;7267268;19;152531;-54
2023/03/30 05:19:48;;;;;;;;;;;;;;;19.56;50.85;100053.03;7253498;19;153982;-54
2023/03/30 05:22:15;;;;;;;;;;;;;;;19.60;51.02;100053.22;7248372;19;152382;-54
2023/03/30 05:24:42;;;;;;;;;;;;;;;19.63;51.35;100059.00;7265677;19;153605;-54
2023/03/30 05:27:09;;;;;;;;;;;;;;;19.65;51.13;100053.06;7266613;19;153992;-54
2023/03/30 05:29:36;;;;;;;;;;;;;;;19.69;50.81;100068.91;7263742;19;153413;-54
2023/03/30 05:32:03;;;;;;;;;;;;;;;19.70;51.11;100081.78;7262845;19;155808;-54
2023/03/30 05:34:30;;;;;;;;;;;;;;;19.71;51.48;100071.41;7265233;19;153481;-54
2023/03/30 05:36:57;;;;;;;;;;;;;;;19.74;51.48;100085.59;7267425;19;152308;-54
2023/03/30 05:39:24;;;;;;;;;;;;;;;19.77;51.91;100084.09;7272307;19;153424;-55
2023/03/30 05:41:51;;;;;;;;;;;;;;;19.81;51.74;100090.72;7258721;19;151886;-55
2023/03/30 05:44:18;;;;;;;;;;;;;;;19.85;52.18;100091.75;7267329;19;152570;-54
2023/03/30 05:46:47;;;;;;;;;;;;;;;19.88;51.97;100089.09;7256762;19;155676;-54
2023/03/30 05:49:15;;;;;;;;;;;;;;;19.92;51.89;100095.72;7258162;19;153004;-54
2023/03/30 05:51:41;;;;;;;;;;;;;;;19.95;51.61;100103.47;7262460;19;152198;-54
2023/03/30 05:54:11;;;;;;;;;;;;;;;19.98;51.49;100100.03;7263006;19;153775;-54
2023/03/30 05:56:39;;;;;;;;;;;;;;;20.03;51.23;100110.25;7265546;19;151841;-54
2023/03/30 05:59:06;;;;;;;;;;;;;;;20.05;50.96;100107.13;7266729;19;153768;-54
2023/03/30 06:01:33;;;;;;;;;;;;;;;20.07;51.06;100097.25;7267049;19;153296;-54
2023/03/30 06:04:03;;;;;;;;;;;;;;;20.11;50.82;100105.81;7262663;19;153657;-54
2023/03/30 06:06:30;;;;;;;;;;;;;;;20.13;50.73;100109.94;7260573;19;154114;-54
2023/03/30 06:08:57;;;;;;;;;;;;;;;20.16;50.45;100105.69;7262718;19;153130;-54
2023/03/30 06:11:24;;;;;;;;;;;;;;;20.18;50.20;100111.75;7257398;19;154203;-54
2023/03/30 06:13:51;;;;;;;;;;;;;;;20.21;50.04;100113.94;7249182;19;153676;-54
2023/03/30 06:16:18;;;;;;;;;;;;;;;20.22;50.10;100118.38;7259502;19;152984;-53
2023/03/30 06:18:45;;;;;;;;;;;;;;;20.26;49.77;100116.59;7258929;19;153395;-54
2023/03/30 06:21:12;;;;;;;;;;;;;;;20.26;49.41;100122.19;7255473;19;153936;-54
2023/03/30 06:23:40;;;;;;;;;;;;;;;20.29;49.59;100118.72;7267964;19;152139;-54
2023/03/30 06:26:08;;;;;;;;;;;;;;;20.32;49.50;100123.72;7258500;19;153307;-54
2023/03/30 06:28:35;;;;;;;;;;;;;;;20.33;49.57;100122.56;7259173;19;154111;-54
2023/03/30 06:31:06;;;;;;;;;;;;;;;20.35;49.27;100128.69;7258986;19;152852;-54
2023/03/30 06:33:33;;;;;;;;;;;;;;;20.37;49.36;100118.78;7254235;19;153342;-54
2023/03/30 06:36:00;;;;;;;;;;;;;;;20.39;49.39;100126.88;7262340;19;152450;-54
2023/03/30 06:38:27;;;;;;;;;;;;;;;20.42;48.85;100123.41;7260784;19;153065;-54
2023/03/30 06:40:54;;;;;;;;;;;;;;;20.45;48.66;100130.31;7248016;19;153477;-54
2023/03/30 06:43:23;;;;;;;;;;;;;;;20.45;48.51;100128.34;7265788;19;152790;-53
2023/03/30 06:45:51;;;;;;;;;;;;;;;20.49;48.25;100129.34;7257052;19;152254;-53
2023/03/30 06:48:19;;;;;;;;;;;;;;;20.53;47.88;100133.16;7257400;19;152640;-53
2023/03/30 06:50:47;;;;;;;;;;;;;;;20.56;47.66;100134.47;7260076;19;152613;-53
2023/03/30 06:53:15;;;;;;;;;;;;;;;20.60;47.72;100133.50;7256529;19;153994;-53
2023/03/30 06:55:42;;;;;;;;;;;;;;;20.66;47.91;100137.81;7257948;19;152567;-53
2023/03/30 06:58:09;;;;;;;;;;;;;;;20.70;47.26;100141.59;7261322;19;154039;-53
2023/03/30 07:00:36;;;;;;;;;;;;;;;20.75;47.38;100143.41;7256366;19;153610;-53
2023/03/30 07:03:06;;;;;;;;;;;;;;;20.79;47.40;100144.41;7256052;19;152140;-54
2023/03/30 07:05:33;;;;;;;;;;;;;;;20.83;47.31;100139.78;7259855;19;152697;-54
2023/03/30 07:08:00;;;;;;;;;;;;;;;20.88;47.14;100150.03;7259973;19;153682;-54
2023/03/30 07:10:27;;;;;;;;;;;;;;;20.93;46.65;100153.50;7256282;19;152680;-54
2023/03/30 07:12:54;;;;;;;;;;;;;;;20.97;46.78;100159.28;7258354;19;152331;-54
2023/03/30 07:15:22;;;;;;;;;;;;;;;21.01;46.63;100166.72;7260473;19;153526;-54
2023/03/30 07:17:49;;;;;;;;;;;;;;;21.06;46.21;100158.13;7260176;19;153124;-54
2023/03/30 07:20:16;;;;;;;;;;;;;;;21.09;46.17;100165.88;7257119;19;153798;-54
2023/03/30 07:22:45;;;;;;;;;;;;;;;21.14;46.06;100153.69;7254460;19;152832;-54
2023/03/30 07:25:13;;;;;;;;;;;;;;;21.18;46.31;100163.09;7260594;19;153263;-54
2023/03/30 07:27:40;;;;;;;;;;;;;;;21.20;45.79;100163.59;7266431;19;153935;-54
2023/03/30 07:30:08;;;;;;;;;;;;;;;21.22;45.94;100162.09;7261564;19;153182;-54
2023/03/30 07:32:48;;;;;;;;;;;;;;;21.26;45.65;100168.69;7255400;19;153726;-53
2023/03/30 07:35:17;;;;;;;;;;;;;;;21.30;46.01;100166.88;7258333;19;153945;-52
2023/03/30 07:37:44;;;;;;;;;;;;;;;21.33;45.88;100168.19;7261935;19;153216;-53
2023/03/30 07:40:16;;;;;;;;;;;;;;;21.35;46.14;100165.88;7256865;19;152308;-53
2023/03/30 07:42:43;;;;;;;;;;;;;;;21.37;45.65;100174.81;7260060;19;152743;-54
2023/03/30 07:45:11;;;;;;;;;;;;;;;21.41;45.38;100186.19;7259396;19;154227;-54
2023/03/30 07:47:41;;;;;;;;;;;;;;;21.41;45.35;100174.97;7256078;19;154557;-54
2023/03/30 07:50:09;;;;;;;;;;;;;;;21.42;45.35;100174.63;7265023;19;152911;-54
2023/03/30 07:52:36;;;;;;;;;;;;;;;21.43;44.97;100186.72;7256367;19;154024;-54
2023/03/30 07:55:04;;;;;;;;;;;;;;;21.43;44.86;100179.09;7256498;19;152694;-54
2023/03/30 07:57:31;;;;;;;;;;;;;;;21.45;44.95;100175.94;7261584;19;153279;-56
2023/03/30 07:59:58;;;;;;;;;;;;;;;21.44;45.02;100191.19;7259450;19;152674;-54
2023/03/30 08:02:26;;;;;;;;;;;;;;;21.44;44.60;100191.19;7256724;19;152917;-54
2023/03/30 08:04:53;;;;;;;;;;;;;;;21.44;44.83;100185.56;7256817;19;153594;-54
2023/03/30 08:07:20;;;;;;;;;;;;;;;21.43;44.66;100181.09;7258691;19;153155;-54
2023/03/30 08:09:47;;;;;;;;;;;;;;;21.43;44.47;100183.91;7262884;19;153105;-54
2023/03/30 08:12:14;;;;;;;;;;;;;;;21.41;44.63;100181.41;7263416;19;152686;-54
2023/03/30 08:14:41;;;;;;;;;;;;;;;21.41;44.33;100191.81;7261665;19;152852;-54
2023/03/30 08:17:08;;;;;;;;;;;;;;;21.40;44.28;100191.00;7258855;19;153233;-54
2023/03/30 08:19:35;;;;;;;;;;;;;;;21.39;44.29;100194.97;7261024;19;153905;-54
2023/03/30 08:22:02;;;;;;;;;;;;;;;21.37;44.21;100196.47;7260799;19;152407;-54
2023/03/30 08:24:29;;;;;;;;;;;;;;;21.38;44.04;100203.75;7259488;19;154167;-54
2023/03/30 08:26:57;;;;;;;;;;;;;;;21.36;44.05;100200.41;7260084;19;155964;-54
2023/03/30 08:29:24;;;;;;;;;;;;;;;21.34;44.36;100199.94;7260197;19;152609;-54
2023/03/30 08:31:51;;;;;;;;;;;;;;;21.34;44.07;100208.38;7255624;19;153292;-54
2023/03/30 08:34:18;;;;;;;;;;;;;;;21.33;44.29;100213.16;7266683;19;152386;-54
2023/03/30 08:36:45;;;;;;;;;;;;;;;21.31;44.25;100215.47;7256692;19;153012;-54
2023/03/30 08:39:12;;;;;;;;;;;;;;;21.32;44.31;100205.88;7258697;19;153927;-54
2023/03/30 08:41:49;;;;;;;;;;;;;;;21.31;44.44;100215.47;7257494;19;152464;-54
2023/03/30 08:44:23;;;;;;;;;;;;;;;21.30;43.87;100213.84;7261339;19;152909;-54
2023/03/30 08:46:50;;;;;;;;;;;;;;;21.29;44.02;100217.78;7256879;19;154475;-54
2023/03/30 08:49:21;;;;;;;;;;;;;;;21.29;44.13;100223.41;7259964;19;152115;-54
2023/03/30 08:51:50;;;;;;;;;;;;;;;21.29;43.93;100217.78;7255545;19;153530;-54
2023/03/30 08:54:19;;;;;;;;;;;;;;;21.26;43.95;100229.69;7266470;19;154364;-54
2023/03/30 08:56:47;;;;;;;;;;;;;;;21.22;44.08;100235.13;7255481;19;153077;-54
2023/03/30 08:59:24;;;;;;;;;;;;;;;21.20;43.94;100223.44;7256913;19;154175;-54
2023/03/30 09:02:01;;;;;;;;;;;;;;;21.19;43.70;100229.38;7252923;19;152988;-54
2023/03/30 09:04:37;;;;;;;;;;;;;;;21.17;43.77;100224.06;7260273;19;152457;-54
2023/03/30 09:07:13;;;;;;;;;;;;;;;21.13;43.81;100225.06;7257269;19;154181;-54
2023/03/30 09:09:42;;;;;;;;;;;;;;;21.16;44.23;100227.22;7260239;19;152752;-54
2023/03/30 09:12:16;;;;;;;;;;;;;;;21.12;44.17;100229.81;7259894;19;153934;-55
2023/03/30 09:14:47;;;;;;;;;;;;;;;21.10;43.97;100239.72;7258599;19;153530;-54
2023/03/30 09:17:17;;;;;;;;;;;;;;;21.03;44.05;100243.03;7262705;19;151984;-54
2023/03/30 09:19:54;;;;;;;;;;;;;;;21.03;44.09;100242.22;7259471;19;153308;-54
2023/03/30 09:22:25;;;;;;;;;;;;;;;21.01;43.98;100247.31;7259958;19;153273;-54
2023/03/30 09:24:52;;;;;;;;;;;;;;;21.02;44.29;100240.56;7261345;19;154863;-54
2023/03/30 09:27:27;;;;;;;;;;;;;;;20.98;44.26;100234.78;7256236;19;153391;-54
2023/03/30 09:29:57;;;;;;;;;;;;;;;20.96;44.16;100225.00;7259468;19;152295;-54
2023/03/30 09:32:40;;;;;;;;;;;;;;;20.95;44.24;100238.22;7254063;19;153543;-54
2023/03/30 09:35:13;;;;;;;;;;;;;;;20.94;44.40;100238.56;7256641;19;152888;-54
2023/03/30 09:37:40;;;;;;;;;;;;;;;20.94;44.24;100249.81;7258999;19;152521;-54
2023/03/30 09:40:17;;;;;;;;;;;;;;;20.88;44.20;100251.13;7263333;19;153471;-54
2023/03/30 09:42:56;;;;;;;;;;;;;;;20.90;44.47;100254.41;7257920;19;153978;-54
2023/03/30 09:45:27;;;;;;;;;;;;;;;20.88;44.38;100245.50;7256864;19;154509;-54
2023/03/30 09:48:07;;;;;;;;;;;;;;;20.87;44.72;100250.28;7253552;19;155303;-54
2023/03/30 09:50:37;;;;;;;;;;;;;;;20.88;44.59;100245.50;7254597;19;151918;-54
2023/03/30 09:53:08;;;;;;;;;;;;;;;20.84;44.84;100246.16;7258375;19;153350;-54
2023/03/30 09:55:37;;;;;;;;;;;;;;;20.84;44.40;100260.19;7259636;19;154194;-54
2023/03/30 09:58:13;;;;;;;;;;;;;;;20.83;44.62;100260.53;7259517;19;151954;-54
2023/03/30 10:00:40;;;;;;;;;;;;;;;20.76;45.04;100263.78;7255756;19;153346;-54
2023/03/30 10:03:17;;;;;;;;;;;;;;;20.76;44.50;100255.38;7260341;19;155246;-53
2023/03/30 10:05:44;;;;;;;;;;;;;;;20.75;44.67;100248.13;7256408;19;152964;-54
2023/03/30 10:08:19;;;;;;;;;;;;;;;20.78;44.70;100247.47;7259646;19;153857;-54
2023/03/30 10:10:54;;;;;;;;;;;;;;;20.77;44.88;100244.97;7264551;19;152693;-54
2023/03/30 10:13:27;;;;;;;;;;;;;;;20.78;44.80;100250.28;7263770;19;155647;-54
2023/03/30 10:15:54;;;;;;;;;;;;;;;20.78;44.99;100249.44;7261720;19;153571;-54
2023/03/30 10:18:22;;;;;;;;;;;;;;;20.76;45.10;100260.16;7265018;19;152266;-54
2023/03/30 10:20:51;;;;;;;;;;;;;;;20.72;45.21;100264.78;7264110;19;153385;-54
2023/03/30 10:23:23;;;;;;;;;;;;;;;20.68;45.24;100275.00;7260702;19;153559;-54
2023/03/30 10:25:50;;;;;;;;;;;;;;;20.65;44.97;100268.06;7269227;19;152241;-54
2023/03/30 10:28:20;;;;;;;;;;;;;;;20.67;44.94;100267.75;7263121;19;154502;-54
2023/03/30 10:30:53;;;;;;;;;;;;;;;20.66;45.17;100266.09;7266896;19;154210;-54
2023/03/30 10:33:20;;;;;;;;;;;;;;;20.64;45.40;100263.59;7264977;19;153074;-53
2023/03/30 10:35:49;;;;;;;;;;;;;;;20.64;45.17;100269.22;7260405;19;153198;-54
2023/03/30 10:38:16;;;;;;;;;;;;;;;20.67;45.19;100262.16;7265767;19;152196;-54
2023/03/30 10:40:44;;;;;;;;;;;;;;;20.64;44.95;100260.81;7261293;19;153430;-54
2023/03/30 10:43:13;;;;;;;;;;;;;;;20.65;45.23;100256.84;7261721;19;154362;-54
2023/03/30 10:45:46;;;;;;;;;;;;;;;20.64;45.24;100255.19;7270582;19;152292;-54
2023/03/30 10:48:14;;;;;;;;;;;;;;;20.61;45.28;100275.50;7257517;19;154060;-54
2023/03/30 10:50:41;;;;;;;;;;;;;;;20.58;45.38;100264.91;7262970;19;153001;-54
2023/03/30 10:53:21;;;;;;;;;;;;;;;20.53;45.50;100267.88;7261160;19;153380;-54
2023/03/30 10:55:53;;;;;;;;;;;;;;;20.57;45.24;100282.91;7261746;19;154499;-53
2023/03/30 10:58:34;;;;;;;;;;;;;;;20.52;45.06;100276.63;7263852;19;153228;-54
2023/03/30 11:01:08;;;;;;;;;;;;;;;20.52;45.11;100265.38;7260902;19;153437;-54
2023/03/30 11:03:37;;;;;;;;;;;;;;;20.57;45.26;100260.47;7260120;19;153315;-54
2023/03/30 11:06:05;;;;;;;;;;;;;;;20.55;45.02;100267.53;7263249;19;154266;-55
2023/03/30 11:08:36;;;;;;;;;;;;;;;20.54;45.21;100263.91;7268789;19;152791;-54
2023/03/30 11:11:04;;;;;;;;;;;;;;;20.52;45.18;100266.22;7262231;19;152240;-54
2023/03/30 11:13:34;;;;;;;;;;;;;;;20.48;45.09;100256.81;7264338;19;153651;-54
2023/03/30 11:16:06;;;;;;;;;;;;;;;20.41;45.54;100257.25;7259827;19;153992;-54
2023/03/30 11:18:35;;;;;;;;;;;;;;;20.49;45.13;100269.66;7261742;19;152651;-54
2023/03/30 11:21:05;;;;;;;;;;;;;;;20.48;45.31;100264.38;7263853;19;153637;-54
2023/03/30 11:23:38;;;;;;;;;;;;;;;20.47;45.28;100260.75;7261461;19;153291;-54
2023/03/30 11:26:07;;;;;;;;;;;;;;;20.44;45.37;100258.59;7262893;19;153268;-54
2023/03/30 11:28:41;;;;;;;;;;;;;;;20.46;45.42;100253.47;7261915;19;154049;-54
2023/03/30 11:31:16;;;;;;;;;;;;;;;20.45;45.34;100249.00;7265293;19;154018;-54
2023/03/30 11:33:46;;;;;;;;;;;;;;;20.52;45.58;100249.38;7260101;19;153351;-54
2023/03/30 11:36:26;;;;;;;;;;;;;;;20.46;45.45;100267.50;7258409;19;154075;-54
2023/03/30 11:38:59;;;;;;;;;;;;;;;20.40;45.71;100260.38;7262510;19;154181;-54
2023/03/30 11:41:31;;;;;;;;;;;;;;;20.42;45.97;100258.09;7261362;19;152824;-53
2023/03/30 11:43:58;;;;;;;;;;;;;;;20.48;45.37;100255.97;7262303;19;153586;-54
2023/03/30 11:46:26;;;;;;;;;;;;;;;20.50;45.51;100262.06;7259596;19;152352;-54
2023/03/30 11:49:05;;;;;;;;;;;;;;;20.51;45.69;100250.53;7255591;19;154837;-54
2023/03/30 11:51:37;;;;;;;;;;;;;;;20.54;45.33;100265.88;7256893;19;152980;-54
2023/03/30 11:54:14;;;;;;;;;;;;;;;20.53;45.69;100248.25;7267944;19;153790;-54
2023/03/30 11:56:51;;;;;;;;;;;;;;;20.55;45.34;100245.91;7259620;19;153834;-54
2023/03/30 11:59:18;;;;;;;;;;;;;;;20.58;45.08;100248.06;7258728;19;151971;-54
2023/03/30 12:01:49;;;;;;;;;;;;;;;20.56;45.30;100249.56;7256678;19;152850;-54
2023/03/30 12:04:23;;;;;;;;;;;;;;;20.55;45.45;100245.91;7261339;19;153171;-54
2023/03/30 12:06:51;;;;;;;;;;;;;;;20.50;45.71;100251.66;7259394;19;152606;-54
2023/03/30 12:09:18;;;;;;;;;;;;;;;20.53;45.46;100245.44;7258825;19;154291;-54
2023/03/30 12:11:49;;;;;;;;;;;;;;;20.47;45.55;100251.50;7245274;19;153649;-55
2023/03/30 12:14:17;;;;;;;;;;;;;;;20.46;45.36;100256.28;7259311;19;152843;-54
2023/03/30 12:16:48;;;;;;;;;;;;;;;20.47;45.24;100241.09;7264385;19;152686;-54
2023/03/30 12:19:24;;;;;;;;;;;;;;;20.43;45.47;100256.94;7259386;19;154109;-54
2023/03/30 12:21:54;;;;;;;;;;;;;;;20.45;45.69;100253.78;7256049;19;154421;-54
2023/03/30 12:24:31;;;;;;;;;;;;;;;20.48;45.91;100248.38;7257274;19;154585;-54
2023/03/30 12:26:59;;;;;;;;;;;;;;;20.55;46.05;100250.69;7256755;19;152044;-54
2023/03/30 12:29:42;;;;;;;;;;;;;;;20.63;46.18;100239.50;7259129;19;152684;-54
2023/03/30 12:32:28;;;;;;;;;;;;;;;20.68;45.85;100241.31;7252180;19;154261;-54
2023/03/30 12:34:56;;;;;;;;;;;;;;;20.73;45.89;100227.13;7261975;19;152982;-54
2023/03/30 12:37:33;;;;;;;;;;;;;;;20.76;45.80;100224.50;7259444;19;153196;-54
2023/03/30 12:40:05;;;;;;;;;;;;;;;20.81;45.34;100227.13;7261773;19;153978;-54
2023/03/30 12:42:33;;;;;;;;;;;;;;;20.87;45.37;100239.06;7259989;19;153648;-54